sensor_id;sensor_type;location;lat;lon;timestamp;P1;durP1;ratioP1;P2;durP2;ratioP2
74624;SDS011;63131;52.298;8.056;2023-08-06T00:01:02;8.35;;;3.22;;
74624;SDS011;63131;52.298;8.056;2023-08-06T00:05:53;7.85;;;3.15;;
74624;SDS011;63131;52.298;8.056;2023-08-06T00:08:18;9.83;;;3.67;;
74624;SDS011;63131;52.298;8.056;2023-08-06T00:10:43;9.90;;;4.03;;
74624;SDS011;63131;52.298;8.056;2023-08-06T00:15:33;8.85;;;3.03;;
74624;SDS011;63131;52.298;8.056;2023-08-06T00:20:23;8.85;;;3.40;;
74624;SDS011;63131;52.298;8.056;2023-08-06T00:22:49;8.83;;;3.90;;
74624;SDS011;63131;52.298;8.056;2023-08-06T00:25:14;9.07;;;3.97;;
74624;SDS011;63131;52.298;8.056;2023-08-06T00:30:04;10.40;;;4.07;;
74624;SDS011;63131;52.298;8.056;2023-08-06T00:34:55;11.52;;;4.13;;
74624;SDS011;63131;52.298;8.056;2023-08-06T00:39:45;9.27;;;3.55;;
74624;SDS011;63131;52.298;8.056;2023-08-06T00:44:36;9.60;;;4.07;;
74624;SDS011;63131;52.298;8.056;2023-08-06T00:49:26;10.90;;;3.70;;
74624;SDS011;63131;52.298;8.056;2023-08-06T00:51:52;9.98;;;3.95;;
74624;SDS011;63131;52.298;8.056;2023-08-06T00:54:17;9.70;;;4.23;;
74624;SDS011;63131;52.298;8.056;2023-08-06T00:56:42;12.00;;;4.07;;
74624;SDS011;63131;52.298;8.056;2023-08-06T01:01:33;9.23;;;3.63;;
74624;SDS011;63131;52.298;8.056;2023-08-06T01:03:58;9.37;;;4.03;;
74624;SDS011;63131;52.298;8.056;2023-08-06T01:06:39;11.00;;;3.97;;
74624;SDS011;63131;52.298;8.056;2023-08-06T01:09:28;9.57;;;3.30;;
74624;SDS011;63131;52.298;8.056;2023-08-06T01:11:57;10.23;;;4.75;;
74624;SDS011;63131;52.298;8.056;2023-08-06T01:14:32;10.20;;;3.65;;
74624;SDS011;63131;52.298;8.056;2023-08-06T01:16:58;9.88;;;3.85;;
74624;SDS011;63131;52.298;8.056;2023-08-06T01:19:24;9.43;;;4.03;;
74624;SDS011;63131;52.298;8.056;2023-08-06T01:21:49;8.90;;;3.58;;
74624;SDS011;63131;52.298;8.056;2023-08-06T01:26:44;8.45;;;3.47;;
74624;SDS011;63131;52.298;8.056;2023-08-06T01:29:23;8.18;;;3.60;;
74624;SDS011;63131;52.298;8.056;2023-08-06T01:31:50;9.02;;;3.17;;
74624;SDS011;63131;52.298;8.056;2023-08-06T01:34:34;9.57;;;3.80;;
74624;SDS011;63131;52.298;8.056;2023-08-06T01:37:00;9.95;;;4.00;;
74624;SDS011;63131;52.298;8.056;2023-08-06T01:39:26;8.35;;;3.33;;
74624;SDS011;63131;52.298;8.056;2023-08-06T01:41:51;8.38;;;3.35;;
74624;SDS011;63131;52.298;8.056;2023-08-06T01:46:42;9.25;;;3.17;;
74624;SDS011;63131;52.298;8.056;2023-08-06T01:49:07;8.23;;;3.63;;
74624;SDS011;63131;52.298;8.056;2023-08-06T01:51:32;9.40;;;3.00;;
74624;SDS011;63131;52.298;8.056;2023-08-06T01:56:22;6.82;;;2.63;;
74624;SDS011;63131;52.298;8.056;2023-08-06T01:58:48;8.90;;;3.50;;
74624;SDS011;63131;52.298;8.056;2023-08-06T02:01:13;7.77;;;3.10;;
74624;SDS011;63131;52.298;8.056;2023-08-06T02:03:38;8.50;;;3.90;;
74624;SDS011;63131;52.298;8.056;2023-08-06T02:06:03;8.70;;;3.30;;
74624;SDS011;63131;52.298;8.056;2023-08-06T02:08:29;8.53;;;3.30;;
74624;SDS011;63131;52.298;8.056;2023-08-06T02:13:19;8.75;;;3.50;;
74624;SDS011;63131;52.298;8.056;2023-08-06T02:15:44;8.80;;;3.50;;
74624;SDS011;63131;52.298;8.056;2023-08-06T02:18:12;8.48;;;3.42;;
74624;SDS011;63131;52.298;8.056;2023-08-06T02:20:37;8.10;;;3.50;;
74624;SDS011;63131;52.298;8.056;2023-08-06T02:25:27;8.45;;;3.22;;
74624;SDS011;63131;52.298;8.056;2023-08-06T02:27:53;10.13;;;4.10;;
74624;SDS011;63131;52.298;8.056;2023-08-06T02:30:18;9.80;;;4.13;;
74624;SDS011;63131;52.298;8.056;2023-08-06T02:32:43;8.13;;;3.50;;
74624;SDS011;63131;52.298;8.056;2023-08-06T02:35:08;7.23;;;3.13;;
74624;SDS011;63131;52.298;8.056;2023-08-06T02:39:59;8.87;;;3.73;;
74624;SDS011;63131;52.298;8.056;2023-08-06T02:42:24;9.00;;;3.73;;
74624;SDS011;63131;52.298;8.056;2023-08-06T02:44:51;9.90;;;4.15;;
74624;SDS011;63131;52.298;8.056;2023-08-06T02:49:41;9.50;;;4.07;;
74624;SDS011;63131;52.298;8.056;2023-08-06T02:52:08;8.40;;;3.67;;
74624;SDS011;63131;52.298;8.056;2023-08-06T02:54:33;8.63;;;3.40;;
74624;SDS011;63131;52.298;8.056;2023-08-06T02:56:58;8.40;;;3.83;;
74624;SDS011;63131;52.298;8.056;2023-08-06T02:59:23;9.30;;;3.77;;
74624;SDS011;63131;52.298;8.056;2023-08-06T03:04:13;8.90;;;3.75;;
74624;SDS011;63131;52.298;8.056;2023-08-06T03:09:04;9.30;;;3.63;;
74624;SDS011;63131;52.298;8.056;2023-08-06T03:13:54;9.98;;;4.03;;
74624;SDS011;63131;52.298;8.056;2023-08-06T03:18:44;10.52;;;4.55;;
74624;SDS011;63131;52.298;8.056;2023-08-06T03:23:35;8.35;;;3.42;;
74624;SDS011;63131;52.298;8.056;2023-08-06T03:28:25;8.57;;;3.97;;
74624;SDS011;63131;52.298;8.056;2023-08-06T03:33:15;10.70;;;4.35;;
74624;SDS011;63131;52.298;8.056;2023-08-06T03:35:40;8.77;;;3.40;;
74624;SDS011;63131;52.298;8.056;2023-08-06T03:40:31;8.05;;;3.47;;
74624;SDS011;63131;52.298;8.056;2023-08-06T03:42:56;9.77;;;4.50;;
74624;SDS011;63131;52.298;8.056;2023-08-06T03:47:46;8.82;;;3.53;;
74624;SDS011;63131;52.298;8.056;2023-08-06T03:52:36;8.50;;;3.80;;
74624;SDS011;63131;52.298;8.056;2023-08-06T03:55:02;8.70;;;3.70;;
74624;SDS011;63131;52.298;8.056;2023-08-06T03:59:52;9.45;;;3.55;;
74624;SDS011;63131;52.298;8.056;2023-08-06T04:04:42;8.10;;;3.83;;
74624;SDS011;63131;52.298;8.056;2023-08-06T04:09:33;7.63;;;3.60;;
74624;SDS011;63131;52.298;8.056;2023-08-06T04:14:28;9.30;;;3.45;;
74624;SDS011;63131;52.298;8.056;2023-08-06T04:16:54;10.18;;;3.78;;
74624;SDS011;63131;52.298;8.056;2023-08-06T04:19:19;9.13;;;3.80;;
74624;SDS011;63131;52.298;8.056;2023-08-06T04:21:44;8.23;;;3.43;;
74624;SDS011;63131;52.298;8.056;2023-08-06T04:26:34;9.80;;;3.40;;
74624;SDS011;63131;52.298;8.056;2023-08-06T04:31:24;8.52;;;3.85;;
74624;SDS011;63131;52.298;8.056;2023-08-06T04:36:15;9.48;;;3.58;;
74624;SDS011;63131;52.298;8.056;2023-08-06T04:38:40;7.83;;;3.43;;
74624;SDS011;63131;52.298;8.056;2023-08-06T04:41:09;8.70;;;3.70;;
74624;SDS011;63131;52.298;8.056;2023-08-06T04:43:35;8.68;;;3.75;;
74624;SDS011;63131;52.298;8.056;2023-08-06T04:46:00;8.47;;;3.73;;
74624;SDS011;63131;52.298;8.056;2023-08-06T04:48:25;8.37;;;3.67;;
74624;SDS011;63131;52.298;8.056;2023-08-06T04:50:50;9.87;;;3.60;;
74624;SDS011;63131;52.298;8.056;2023-08-06T04:53:16;9.65;;;3.65;;
74624;SDS011;63131;52.298;8.056;2023-08-06T04:58:06;9.18;;;3.63;;
74624;SDS011;63131;52.298;8.056;2023-08-06T05:02:57;7.72;;;3.00;;
74624;SDS011;63131;52.298;8.056;2023-08-06T05:07:48;7.95;;;3.72;;
74624;SDS011;63131;52.298;8.056;2023-08-06T05:10:13;9.23;;;3.75;;
74624;SDS011;63131;52.298;8.056;2023-08-06T05:12:38;8.53;;;3.43;;
74624;SDS011;63131;52.298;8.056;2023-08-06T05:15:04;8.97;;;3.90;;
74624;SDS011;63131;52.298;8.056;2023-08-06T05:17:29;7.60;;;3.65;;
74624;SDS011;63131;52.298;8.056;2023-08-06T05:22:19;8.63;;;3.47;;
74624;SDS011;63131;52.298;8.056;2023-08-06T05:27:09;8.13;;;3.40;;
74624;SDS011;63131;52.298;8.056;2023-08-06T05:32:00;9.88;;;3.40;;
74624;SDS011;63131;52.298;8.056;2023-08-06T05:36:50;7.50;;;3.15;;
74624;SDS011;63131;52.298;8.056;2023-08-06T05:41:40;7.30;;;3.20;;
74624;SDS011;63131;52.298;8.056;2023-08-06T05:44:06;7.90;;;3.13;;
74624;SDS011;63131;52.298;8.056;2023-08-06T05:48:56;7.93;;;3.60;;
74624;SDS011;63131;52.298;8.056;2023-08-06T05:51:21;7.33;;;2.83;;
74624;SDS011;63131;52.298;8.056;2023-08-06T05:53:46;7.83;;;3.23;;
74624;SDS011;63131;52.298;8.056;2023-08-06T05:56:12;9.45;;;3.30;;
74624;SDS011;63131;52.298;8.056;2023-08-06T06:01:02;8.75;;;3.40;;
74624;SDS011;63131;52.298;8.056;2023-08-06T06:03:27;7.50;;;3.37;;
74624;SDS011;63131;52.298;8.056;2023-08-06T06:05:52;8.43;;;3.20;;
74624;SDS011;63131;52.298;8.056;2023-08-06T06:10:43;7.85;;;2.70;;
74624;SDS011;63131;52.298;8.056;2023-08-06T06:13:08;7.63;;;3.00;;
74624;SDS011;63131;52.298;8.056;2023-08-06T06:15:33;7.80;;;2.90;;
74624;SDS011;63131;52.298;8.056;2023-08-06T06:17:58;9.10;;;2.93;;
74624;SDS011;63131;52.298;8.056;2023-08-06T06:20:23;7.53;;;2.53;;
74624;SDS011;63131;52.298;8.056;2023-08-06T06:22:49;9.13;;;3.00;;
74624;SDS011;63131;52.298;8.056;2023-08-06T06:25:14;8.97;;;2.90;;
74624;SDS011;63131;52.298;8.056;2023-08-06T06:27:39;7.13;;;2.90;;
74624;SDS011;63131;52.298;8.056;2023-08-06T06:30:05;8.83;;;3.33;;
74624;SDS011;63131;52.298;8.056;2023-08-06T06:32:30;7.38;;;2.85;;
74624;SDS011;63131;52.298;8.056;2023-08-06T06:34:55;7.30;;;3.00;;
74624;SDS011;63131;52.298;8.056;2023-08-06T06:37:20;8.13;;;3.20;;
74624;SDS011;63131;52.298;8.056;2023-08-06T06:39:46;7.30;;;3.17;;
74624;SDS011;63131;52.298;8.056;2023-08-06T06:42:11;7.53;;;3.13;;
74624;SDS011;63131;52.298;8.056;2023-08-06T06:44:36;7.10;;;2.90;;
74624;SDS011;63131;52.298;8.056;2023-08-06T06:47:01;7.73;;;2.97;;
74624;SDS011;63131;52.298;8.056;2023-08-06T06:49:26;8.03;;;3.03;;
74624;SDS011;63131;52.298;8.056;2023-08-06T06:51:52;9.43;;;3.27;;
74624;SDS011;63131;52.298;8.056;2023-08-06T06:54:17;7.22;;;2.80;;
74624;SDS011;63131;52.298;8.056;2023-08-06T06:56:42;7.63;;;2.93;;
74624;SDS011;63131;52.298;8.056;2023-08-06T06:59:07;8.63;;;3.20;;
74624;SDS011;63131;52.298;8.056;2023-08-06T07:01:33;7.83;;;3.33;;
74624;SDS011;63131;52.298;8.056;2023-08-06T07:03:58;6.60;;;2.70;;
74624;SDS011;63131;52.298;8.056;2023-08-06T07:06:23;6.70;;;2.83;;
74624;SDS011;63131;52.298;8.056;2023-08-06T07:08:48;7.67;;;3.30;;
74624;SDS011;63131;52.298;8.056;2023-08-06T07:11:13;8.00;;;2.87;;
74624;SDS011;63131;52.298;8.056;2023-08-06T07:13:39;7.27;;;2.97;;
74624;SDS011;63131;52.298;8.056;2023-08-06T07:16:04;7.77;;;2.83;;
74624;SDS011;63131;52.298;8.056;2023-08-06T07:18:29;7.50;;;3.33;;
74624;SDS011;63131;52.298;8.056;2023-08-06T07:20:55;7.67;;;2.83;;
74624;SDS011;63131;52.298;8.056;2023-08-06T07:23:21;7.00;;;2.83;;
74624;SDS011;63131;52.298;8.056;2023-08-06T07:25:46;7.95;;;2.85;;
74624;SDS011;63131;52.298;8.056;2023-08-06T07:28:12;7.45;;;3.28;;
74624;SDS011;63131;52.298;8.056;2023-08-06T07:30:38;7.65;;;3.22;;
74624;SDS011;63131;52.298;8.056;2023-08-06T07:33:03;6.43;;;2.65;;
74624;SDS011;63131;52.298;8.056;2023-08-06T07:35:28;7.10;;;2.53;;
74624;SDS011;63131;52.298;8.056;2023-08-06T07:40:28;8.70;;;3.33;;
74624;SDS011;63131;52.298;8.056;2023-08-06T07:42:53;8.35;;;2.92;;
74624;SDS011;63131;52.298;8.056;2023-08-06T07:45:18;7.97;;;3.60;;
74624;SDS011;63131;52.298;8.056;2023-08-06T07:47:44;7.63;;;3.40;;
74624;SDS011;63131;52.298;8.056;2023-08-06T07:50:09;9.47;;;3.13;;
74624;SDS011;63131;52.298;8.056;2023-08-06T07:52:34;8.32;;;3.33;;
74624;SDS011;63131;52.298;8.056;2023-08-06T07:55:00;7.82;;;2.90;;
74624;SDS011;63131;52.298;8.056;2023-08-06T07:57:26;7.10;;;3.17;;
74624;SDS011;63131;52.298;8.056;2023-08-06T07:59:51;7.40;;;2.80;;
74624;SDS011;63131;52.298;8.056;2023-08-06T08:02:18;7.72;;;3.25;;
74624;SDS011;63131;52.298;8.056;2023-08-06T08:04:43;7.40;;;3.00;;
74624;SDS011;63131;52.298;8.056;2023-08-06T08:07:09;7.77;;;3.83;;
74624;SDS011;63131;52.298;8.056;2023-08-06T08:09:34;9.23;;;3.70;;
74624;SDS011;63131;52.298;8.056;2023-08-06T08:12:00;7.20;;;2.90;;
74624;SDS011;63131;52.298;8.056;2023-08-06T08:14:26;6.55;;;2.80;;
74624;SDS011;63131;52.298;8.056;2023-08-06T08:16:51;7.37;;;2.67;;
74624;SDS011;63131;52.298;8.056;2023-08-06T08:19:16;6.60;;;2.63;;
74624;SDS011;63131;52.298;8.056;2023-08-06T08:21:41;6.77;;;2.93;;
74624;SDS011;63131;52.298;8.056;2023-08-06T08:24:06;8.20;;;2.97;;
74624;SDS011;63131;52.298;8.056;2023-08-06T08:26:32;7.20;;;2.80;;
74624;SDS011;63131;52.298;8.056;2023-08-06T08:28:57;7.83;;;2.70;;
74624;SDS011;63131;52.298;8.056;2023-08-06T08:31:23;6.97;;;2.72;;
74624;SDS011;63131;52.298;8.056;2023-08-06T08:33:49;8.32;;;2.90;;
74624;SDS011;63131;52.298;8.056;2023-08-06T08:36:15;7.13;;;2.63;;
74624;SDS011;63131;52.298;8.056;2023-08-06T08:38:43;6.20;;;2.47;;
74624;SDS011;63131;52.298;8.056;2023-08-06T08:41:09;6.55;;;2.58;;
74624;SDS011;63131;52.298;8.056;2023-08-06T08:43:35;7.22;;;3.08;;
74624;SDS011;63131;52.298;8.056;2023-08-06T08:46:00;6.38;;;2.42;;
74624;SDS011;63131;52.298;8.056;2023-08-06T08:48:26;6.50;;;2.38;;
74624;SDS011;63131;52.298;8.056;2023-08-06T08:50:52;5.93;;;2.35;;
74624;SDS011;63131;52.298;8.056;2023-08-06T08:53:18;6.15;;;2.40;;
74624;SDS011;63131;52.298;8.056;2023-08-06T08:55:43;6.68;;;2.40;;
74624;SDS011;63131;52.298;8.056;2023-08-06T08:58:09;6.60;;;2.30;;
74624;SDS011;63131;52.298;8.056;2023-08-06T09:00:34;5.87;;;2.10;;
74624;SDS011;63131;52.298;8.056;2023-08-06T09:03:00;6.57;;;2.40;;
74624;SDS011;63131;52.298;8.056;2023-08-06T09:05:26;6.30;;;2.20;;
74624;SDS011;63131;52.298;8.056;2023-08-06T09:08:04;6.35;;;2.33;;
74624;SDS011;63131;52.298;8.056;2023-08-06T09:10:29;7.00;;;2.25;;
74624;SDS011;63131;52.298;8.056;2023-08-06T09:12:56;5.68;;;2.00;;
74624;SDS011;63131;52.298;8.056;2023-08-06T09:15:24;6.38;;;2.28;;
74624;SDS011;63131;52.298;8.056;2023-08-06T09:17:50;6.75;;;2.30;;
74624;SDS011;63131;52.298;8.056;2023-08-06T09:20:15;6.67;;;1.87;;
74624;SDS011;63131;52.298;8.056;2023-08-06T09:22:41;6.05;;;2.30;;
74624;SDS011;63131;52.298;8.056;2023-08-06T09:25:06;6.95;;;2.03;;
74624;SDS011;63131;52.298;8.056;2023-08-06T09:27:35;7.35;;;2.42;;
74624;SDS011;63131;52.298;8.056;2023-08-06T09:30:00;7.75;;;2.10;;
74624;SDS011;63131;52.298;8.056;2023-08-06T09:32:25;5.93;;;2.07;;
74624;SDS011;63131;52.298;8.056;2023-08-06T09:34:54;5.57;;;2.30;;
74624;SDS011;63131;52.298;8.056;2023-08-06T09:37:20;6.07;;;2.50;;
74624;SDS011;63131;52.298;8.056;2023-08-06T09:39:45;6.10;;;2.20;;
74624;SDS011;63131;52.298;8.056;2023-08-06T09:42:10;8.57;;;2.57;;
74624;SDS011;63131;52.298;8.056;2023-08-06T09:44:39;5.45;;;2.00;;
74624;SDS011;63131;52.298;8.056;2023-08-06T09:47:05;7.00;;;2.45;;
74624;SDS011;63131;52.298;8.056;2023-08-06T09:51:59;5.60;;;1.92;;
74624;SDS011;63131;52.298;8.056;2023-08-06T09:54:26;4.45;;;1.80;;
74624;SDS011;63131;52.298;8.056;2023-08-06T09:56:53;6.38;;;2.10;;
74624;SDS011;63131;52.298;8.056;2023-08-06T09:59:18;8.23;;;2.10;;
74624;SDS011;63131;52.298;8.056;2023-08-06T10:01:44;5.60;;;2.15;;
74624;SDS011;63131;52.298;8.056;2023-08-06T10:04:10;6.38;;;2.00;;
74624;SDS011;63131;52.298;8.056;2023-08-06T10:06:37;6.05;;;2.20;;
74624;SDS011;63131;52.298;8.056;2023-08-06T10:09:02;6.57;;;2.53;;
74624;SDS011;63131;52.298;8.056;2023-08-06T10:11:28;6.97;;;1.95;;
74624;SDS011;63131;52.298;8.056;2023-08-06T10:16:38;5.72;;;2.05;;
74624;SDS011;63131;52.298;8.056;2023-08-06T10:19:04;5.50;;;2.08;;
74624;SDS011;63131;52.298;8.056;2023-08-06T10:21:30;5.88;;;2.22;;
74624;SDS011;63131;52.298;8.056;2023-08-06T10:23:55;7.20;;;2.30;;
74624;SDS011;63131;52.298;8.056;2023-08-06T10:26:24;5.07;;;1.87;;
74624;SDS011;63131;52.298;8.056;2023-08-06T10:28:49;6.38;;;2.15;;
74624;SDS011;63131;52.298;8.056;2023-08-06T10:31:15;5.50;;;1.97;;
74624;SDS011;63131;52.298;8.056;2023-08-06T10:33:43;5.90;;;2.10;;
74624;SDS011;63131;52.298;8.056;2023-08-06T10:36:09;6.13;;;2.03;;
74624;SDS011;63131;52.298;8.056;2023-08-06T10:38:35;7.10;;;2.08;;
74624;SDS011;63131;52.298;8.056;2023-08-06T10:41:02;5.43;;;2.03;;
74624;SDS011;63131;52.298;8.056;2023-08-06T10:43:29;6.50;;;2.38;;
74624;SDS011;63131;52.298;8.056;2023-08-06T10:45:55;5.93;;;2.17;;
74624;SDS011;63131;52.298;8.056;2023-08-06T10:51:01;6.22;;;2.22;;
74624;SDS011;63131;52.298;8.056;2023-08-06T10:53:27;5.45;;;2.00;;
74624;SDS011;63131;52.298;8.056;2023-08-06T10:55:52;6.00;;;2.20;;
74624;SDS011;63131;52.298;8.056;2023-08-06T10:58:17;5.90;;;2.20;;
74624;SDS011;63131;52.298;8.056;2023-08-06T11:00:42;5.50;;;1.70;;
74624;SDS011;63131;52.298;8.056;2023-08-06T11:03:07;6.07;;;2.23;;
74624;SDS011;63131;52.298;8.056;2023-08-06T11:05:33;5.78;;;2.00;;
74624;SDS011;63131;52.298;8.056;2023-08-06T11:07:58;5.83;;;1.90;;
74624;SDS011;63131;52.298;8.056;2023-08-06T11:10:23;5.37;;;2.20;;
74624;SDS011;63131;52.298;8.056;2023-08-06T11:12:49;4.97;;;1.80;;
74624;SDS011;63131;52.298;8.056;2023-08-06T11:15:14;6.70;;;2.00;;
74624;SDS011;63131;52.298;8.056;2023-08-06T11:17:40;4.73;;;1.83;;
74624;SDS011;63131;52.298;8.056;2023-08-06T11:20:05;5.78;;;2.00;;
74624;SDS011;63131;52.298;8.056;2023-08-06T11:22:31;5.15;;;1.73;;
74624;SDS011;63131;52.298;8.056;2023-08-06T11:24:56;7.03;;;2.28;;
74624;SDS011;63131;52.298;8.056;2023-08-06T11:27:21;7.23;;;2.50;;
74624;SDS011;63131;52.298;8.056;2023-08-06T11:29:47;6.93;;;2.90;;
74624;SDS011;63131;52.298;8.056;2023-08-06T11:32:12;8.45;;;3.30;;
74624;SDS011;63131;52.298;8.056;2023-08-06T11:34:38;9.30;;;3.40;;
74624;SDS011;63131;52.298;8.056;2023-08-06T11:37:03;6.95;;;3.35;;
74624;SDS011;63131;52.298;8.056;2023-08-06T11:39:37;8.80;;;3.03;;
74624;SDS011;63131;52.298;8.056;2023-08-06T11:42:03;7.10;;;3.13;;
74624;SDS011;63131;52.298;8.056;2023-08-06T11:44:32;7.18;;;2.97;;
74624;SDS011;63131;52.298;8.056;2023-08-06T11:46:58;8.52;;;3.38;;
74624;SDS011;63131;52.298;8.056;2023-08-06T11:54:35;8.07;;;3.38;;
74624;SDS011;63131;52.298;8.056;2023-08-06T11:57:02;7.75;;;3.42;;
74624;SDS011;63131;52.298;8.056;2023-08-06T11:59:27;8.40;;;3.10;;
74624;SDS011;63131;52.298;8.056;2023-08-06T12:01:53;8.23;;;3.05;;
74624;SDS011;63131;52.298;8.056;2023-08-06T12:04:18;7.70;;;2.90;;
74624;SDS011;63131;52.298;8.056;2023-08-06T12:06:43;8.43;;;4.33;;
74624;SDS011;63131;52.298;8.056;2023-08-06T12:09:08;9.60;;;4.38;;
74624;SDS011;63131;52.298;8.056;2023-08-06T12:11:36;10.55;;;4.60;;
74624;SDS011;63131;52.298;8.056;2023-08-06T12:14:01;9.18;;;4.63;;
74624;SDS011;63131;52.298;8.056;2023-08-06T12:16:27;9.00;;;4.30;;
74624;SDS011;63131;52.298;8.056;2023-08-06T12:18:52;34.80;;;6.45;;
74624;SDS011;63131;52.298;8.056;2023-08-06T12:21:18;13.23;;;5.27;;
74624;SDS011;63131;52.298;8.056;2023-08-06T12:23:43;10.07;;;4.60;;
74624;SDS011;63131;52.298;8.056;2023-08-06T12:26:08;102.90;;;11.63;;
74624;SDS011;63131;52.298;8.056;2023-08-06T12:28:33;75.35;;;10.30;;
74624;SDS011;63131;52.298;8.056;2023-08-06T12:30:59;19.33;;;5.93;;
74624;SDS011;63131;52.298;8.056;2023-08-06T12:33:24;9.43;;;4.93;;
74624;SDS011;63131;52.298;8.056;2023-08-06T12:35:49;8.97;;;4.30;;
74624;SDS011;63131;52.298;8.056;2023-08-06T12:38:14;8.33;;;4.10;;
74624;SDS011;63131;52.298;8.056;2023-08-06T12:40:39;10.00;;;4.40;;
74624;SDS011;63131;52.298;8.056;2023-08-06T12:43:05;9.70;;;5.40;;
74624;SDS011;63131;52.298;8.056;2023-08-06T12:45:30;12.68;;;5.28;;
74624;SDS011;63131;52.298;8.056;2023-08-06T12:47:55;9.90;;;5.43;;
74624;SDS011;63131;52.298;8.056;2023-08-06T12:50:20;10.40;;;5.47;;
74624;SDS011;63131;52.298;8.056;2023-08-06T12:52:46;9.20;;;4.77;;
74624;SDS011;63131;52.298;8.056;2023-08-06T12:55:11;12.13;;;5.65;;
74624;SDS011;63131;52.298;8.056;2023-08-06T12:57:36;8.00;;;3.90;;
74624;SDS011;63131;52.298;8.056;2023-08-06T13:00:02;7.87;;;3.40;;
74624;SDS011;63131;52.298;8.056;2023-08-06T13:02:27;7.82;;;3.00;;
74624;SDS011;63131;52.298;8.056;2023-08-06T13:04:54;8.32;;;3.35;;
74624;SDS011;63131;52.298;8.056;2023-08-06T13:07:20;9.27;;;4.60;;
74624;SDS011;63131;52.298;8.056;2023-08-06T13:09:45;9.83;;;4.17;;
74624;SDS011;63131;52.298;8.056;2023-08-06T13:12:10;9.30;;;3.90;;
74624;SDS011;63131;52.298;8.056;2023-08-06T13:14:35;8.77;;;4.10;;
74624;SDS011;63131;52.298;8.056;2023-08-06T13:17:00;8.27;;;3.90;;
74624;SDS011;63131;52.298;8.056;2023-08-06T13:19:26;10.73;;;5.28;;
74624;SDS011;63131;52.298;8.056;2023-08-06T13:24:16;10.65;;;4.72;;
74624;SDS011;63131;52.298;8.056;2023-08-06T13:26:41;8.40;;;4.10;;
74624;SDS011;63131;52.298;8.056;2023-08-06T13:29:06;11.27;;;4.13;;
74624;SDS011;63131;52.298;8.056;2023-08-06T13:31:32;9.27;;;4.53;;
74624;SDS011;63131;52.298;8.056;2023-08-06T13:33:57;9.57;;;4.40;;
74624;SDS011;63131;52.298;8.056;2023-08-06T13:36:23;10.60;;;4.40;;
74624;SDS011;63131;52.298;8.056;2023-08-06T13:38:48;9.48;;;3.95;;
74624;SDS011;63131;52.298;8.056;2023-08-06T13:41:14;9.50;;;4.85;;
74624;SDS011;63131;52.298;8.056;2023-08-06T13:43:39;8.95;;;4.00;;
74624;SDS011;63131;52.298;8.056;2023-08-06T13:46:04;9.33;;;4.53;;
74624;SDS011;63131;52.298;8.056;2023-08-06T13:48:30;11.27;;;4.70;;
74624;SDS011;63131;52.298;8.056;2023-08-06T13:50:56;9.32;;;4.75;;
74624;SDS011;63131;52.298;8.056;2023-08-06T13:53:21;9.93;;;4.40;;
74624;SDS011;63131;52.298;8.056;2023-08-06T13:55:46;10.57;;;5.10;;
74624;SDS011;63131;52.298;8.056;2023-08-06T13:58:11;10.00;;;4.97;;
74624;SDS011;63131;52.298;8.056;2023-08-06T14:00:37;9.70;;;4.60;;
74624;SDS011;63131;52.298;8.056;2023-08-06T14:03:02;10.90;;;5.13;;
74624;SDS011;63131;52.298;8.056;2023-08-06T14:05:27;9.45;;;4.88;;
74624;SDS011;63131;52.298;8.056;2023-08-06T14:07:52;11.35;;;5.28;;
74624;SDS011;63131;52.298;8.056;2023-08-06T14:10:18;11.63;;;5.27;;
74624;SDS011;63131;52.298;8.056;2023-08-06T14:12:43;14.47;;;5.60;;
74624;SDS011;63131;52.298;8.056;2023-08-06T14:15:08;14.77;;;5.70;;
74624;SDS011;63131;52.298;8.056;2023-08-06T14:17:34;10.60;;;5.32;;
74624;SDS011;63131;52.298;8.056;2023-08-06T14:19:59;107.73;;;12.57;;
74624;SDS011;63131;52.298;8.056;2023-08-06T14:22:25;31.58;;;7.30;;
74624;SDS011;63131;52.298;8.056;2023-08-06T14:24:51;156.00;;;16.33;;
74624;SDS011;63131;52.298;8.056;2023-08-06T14:27:19;11.20;;;5.82;;
74624;SDS011;63131;52.298;8.056;2023-08-06T14:29:46;11.40;;;5.57;;
74624;SDS011;63131;52.298;8.056;2023-08-06T14:32:11;12.00;;;7.20;;
74624;SDS011;63131;52.298;8.056;2023-08-06T14:34:37;12.15;;;6.03;;
74624;SDS011;63131;52.298;8.056;2023-08-06T14:37:02;11.57;;;6.60;;
74624;SDS011;63131;52.298;8.056;2023-08-06T14:39:28;10.15;;;5.85;;
74624;SDS011;63131;52.298;8.056;2023-08-06T14:41:53;13.10;;;6.47;;
74624;SDS011;63131;52.298;8.056;2023-08-06T14:44:18;14.23;;;7.10;;
74624;SDS011;63131;52.298;8.056;2023-08-06T14:46:43;10.17;;;5.67;;
74624;SDS011;63131;52.298;8.056;2023-08-06T14:49:08;10.17;;;5.00;;
74624;SDS011;63131;52.298;8.056;2023-08-06T14:51:33;12.13;;;6.20;;
74624;SDS011;63131;52.298;8.056;2023-08-06T14:53:59;11.60;;;5.80;;
74624;SDS011;63131;52.298;8.056;2023-08-06T14:56:24;10.20;;;5.37;;
74624;SDS011;63131;52.298;8.056;2023-08-06T14:58:49;11.77;;;5.67;;
74624;SDS011;63131;52.298;8.056;2023-08-06T15:01:14;11.03;;;5.73;;
74624;SDS011;63131;52.298;8.056;2023-08-06T15:03:39;12.23;;;5.93;;
74624;SDS011;63131;52.298;8.056;2023-08-06T15:06:05;10.70;;;5.60;;
74624;SDS011;63131;52.298;8.056;2023-08-06T15:08:30;11.13;;;6.40;;
74624;SDS011;63131;52.298;8.056;2023-08-06T15:10:55;11.93;;;6.20;;
74624;SDS011;63131;52.298;8.056;2023-08-06T15:13:20;11.27;;;5.73;;
74624;SDS011;63131;52.298;8.056;2023-08-06T15:15:46;11.32;;;5.97;;
74624;SDS011;63131;52.298;8.056;2023-08-06T15:18:11;10.27;;;5.93;;
74624;SDS011;63131;52.298;8.056;2023-08-06T15:20:36;10.00;;;5.40;;
74624;SDS011;63131;52.298;8.056;2023-08-06T15:23:02;11.07;;;6.00;;
74624;SDS011;63131;52.298;8.056;2023-08-06T15:25:27;11.13;;;6.00;;
74624;SDS011;63131;52.298;8.056;2023-08-06T15:27:52;13.70;;;5.53;;
74624;SDS011;63131;52.298;8.056;2023-08-06T15:30:18;11.00;;;5.83;;
74624;SDS011;63131;52.298;8.056;2023-08-06T15:32:44;9.60;;;5.70;;
74624;SDS011;63131;52.298;8.056;2023-08-06T15:35:10;9.63;;;5.75;;
74624;SDS011;63131;52.298;8.056;2023-08-06T15:37:36;10.80;;;5.10;;
74624;SDS011;63131;52.298;8.056;2023-08-06T15:40:01;9.40;;;4.90;;
74624;SDS011;63131;52.298;8.056;2023-08-06T15:42:26;9.07;;;4.60;;
74624;SDS011;63131;52.298;8.056;2023-08-06T15:44:51;11.07;;;5.03;;
74624;SDS011;63131;52.298;8.056;2023-08-06T15:47:17;9.13;;;4.50;;
74624;SDS011;63131;52.298;8.056;2023-08-06T15:49:42;9.00;;;4.23;;
74624;SDS011;63131;52.298;8.056;2023-08-06T15:52:07;8.88;;;4.05;;
74624;SDS011;63131;52.298;8.056;2023-08-06T15:57:09;8.77;;;4.30;;
74624;SDS011;63131;52.298;8.056;2023-08-06T15:59:35;9.88;;;4.03;;
74624;SDS011;63131;52.298;8.056;2023-08-06T16:02:00;8.17;;;3.97;;
74624;SDS011;63131;52.298;8.056;2023-08-06T16:04:30;9.20;;;3.90;;
74624;SDS011;63131;52.298;8.056;2023-08-06T16:06:56;10.25;;;4.07;;
74624;SDS011;63131;52.298;8.056;2023-08-06T16:09:21;10.38;;;4.75;;
74624;SDS011;63131;52.298;8.056;2023-08-06T16:11:53;11.68;;;4.22;;
74624;SDS011;63131;52.298;8.056;2023-08-06T16:14:18;13.40;;;4.50;;
74624;SDS011;63131;52.298;8.056;2023-08-06T16:16:45;17.42;;;4.53;;
74624;SDS011;63131;52.298;8.056;2023-08-06T16:19:10;51.70;;;7.22;;
74624;SDS011;63131;52.298;8.056;2023-08-06T16:21:36;21.23;;;4.73;;
74624;SDS011;63131;52.298;8.056;2023-08-06T16:24:02;8.82;;;4.07;;
74624;SDS011;63131;52.298;8.056;2023-08-06T16:26:29;10.27;;;4.20;;
74624;SDS011;63131;52.298;8.056;2023-08-06T16:28:56;35.03;;;4.97;;
74624;SDS011;63131;52.298;8.056;2023-08-06T16:31:21;7.82;;;3.33;;
74624;SDS011;63131;52.298;8.056;2023-08-06T16:33:49;9.60;;;3.67;;
74624;SDS011;63131;52.298;8.056;2023-08-06T16:36:15;10.82;;;4.18;;
74624;SDS011;63131;52.298;8.056;2023-08-06T16:38:40;9.23;;;3.50;;
74624;SDS011;63131;52.298;8.056;2023-08-06T16:41:05;8.70;;;3.20;;
74624;SDS011;63131;52.298;8.056;2023-08-06T16:43:30;8.40;;;3.27;;